createdAt,value
2023-03-21T00:00:42.111Z,13.75
2023-03-21T00:03:09.474Z,13.82
2023-03-21T00:05:45.698Z,13.82
2023-03-21T00:08:13.000Z,13.83
2023-03-21T00:10:43.772Z,13.79
2023-03-21T00:13:13.360Z,13.66
2023-03-21T00:18:42.470Z,13.67
2023-03-21T00:24:00.534Z,13.86
2023-03-21T00:26:27.833Z,13.68
2023-03-21T00:28:55.191Z,13.57
2023-03-21T00:31:22.461Z,13.65
2023-03-21T00:33:50.758Z,13.57
2023-03-21T00:36:18.039Z,13.48
2023-03-21T00:38:45.950Z,13.30
2023-03-21T00:41:26.130Z,13.29
2023-03-21T00:44:02.430Z,13.17
2023-03-21T00:46:39.861Z,13.17
2023-03-21T00:49:09.701Z,13.05
2023-03-21T00:51:36.964Z,13.04
2023-03-21T00:54:05.899Z,13.14
2023-03-21T00:56:33.099Z,13.24
2023-03-21T00:59:00.539Z,13.29
2023-03-21T01:01:31.958Z,13.24
2023-03-21T01:04:10.807Z,13.15
2023-03-21T01:06:39.562Z,13.14
2023-03-21T01:09:11.179Z,13.08
2023-03-21T01:11:38.478Z,13.11
2023-03-21T01:14:20.918Z,12.98
2023-03-21T01:16:51.182Z,12.99
2023-03-21T01:19:50.754Z,13.13
2023-03-21T01:22:08.658Z,13.13
2023-03-21T01:24:40.591Z,13.12
2023-03-21T01:27:10.963Z,13.16
2023-03-21T01:29:38.330Z,13.26
2023-03-21T01:32:06.120Z,13.21
2023-03-21T01:34:33.364Z,12.95
2023-03-21T01:37:01.491Z,13.23
2023-03-21T01:39:32.844Z,13.22
2023-03-21T01:42:00.324Z,13.22
2023-03-21T01:44:28.861Z,13.34
2023-03-21T01:47:09.723Z,13.21
2023-03-21T01:49:46.867Z,13.17
2023-03-21T01:52:38.717Z,13.27
2023-03-21T01:55:12.398Z,13.20
2023-03-21T01:58:04.718Z,13.16
2023-03-21T02:00:43.803Z,12.83
2023-03-21T02:03:35.396Z,13.19
2023-03-21T02:06:47.199Z,13.29
2023-03-21T02:09:40.861Z,12.98
2023-03-21T02:12:16.346Z,13.07
2023-03-21T02:14:45.553Z,12.76
2023-03-21T02:17:29.833Z,12.90
2023-03-21T02:20:22.200Z,13.28
2023-03-21T02:23:12.857Z,13.19
2023-03-21T02:25:58.388Z,12.97
2023-03-21T02:28:30.007Z,13.07
2023-03-21T02:31:15.901Z,12.94
2023-03-21T02:34:03.090Z,13.02
2023-03-21T02:36:59.242Z,13.20
2023-03-21T02:39:31.659Z,13.21
2023-03-21T02:42:22.080Z,13.02
2023-03-21T02:45:07.272Z,12.96
2023-03-21T02:47:47.710Z,13.09
2023-03-21T02:50:19.940Z,13.08
2023-03-21T02:52:48.048Z,12.91
2023-03-21T02:55:27.140Z,12.98
2023-03-21T02:58:11.781Z,12.81
2023-03-21T03:00:44.861Z,13.01
2023-03-21T03:03:28.077Z,13.09
2023-03-21T03:06:03.321Z,13.00
2023-03-21T03:08:52.913Z,13.09
2023-03-21T03:11:50.092Z,12.98
2023-03-21T03:14:56.445Z,12.84
2023-03-21T03:17:52.506Z,12.78
2023-03-21T03:20:31.122Z,12.79
2023-03-21T03:23:13.654Z,12.82
2023-03-21T03:25:52.560Z,12.93
2023-03-21T03:28:25.824Z,12.95
2023-03-21T03:31:07.990Z,12.82
2023-03-21T03:33:46.888Z,12.75
2023-03-21T03:36:30.319Z,12.78
2023-03-21T03:39:04.717Z,12.70
2023-03-21T03:42:02.894Z,12.67
2023-03-21T03:44:30.062Z,12.66
2023-03-21T03:47:07.120Z,12.77
2023-03-21T03:49:49.433Z,12.72
2023-03-21T03:52:27.976Z,12.64
2023-03-21T03:55:12.440Z,12.68
2023-03-21T03:57:42.400Z,12.63
2023-03-21T04:00:13.058Z,12.60
2023-03-21T04:02:48.734Z,12.71
2023-03-21T04:05:21.415Z,12.63
2023-03-21T04:07:51.113Z,12.43
2023-03-21T04:10:22.756Z,12.40
2023-03-21T04:12:50.416Z,12.24
2023-03-21T04:15:36.229Z,12.33
2023-03-21T04:18:11.666Z,12.47
2023-03-21T04:20:39.146Z,12.36
2023-03-21T04:23:08.722Z,12.38
2023-03-21T04:25:42.279Z,12.43
2023-03-21T04:28:15.073Z,12.40
2023-03-21T04:31:02.487Z,12.69
2023-03-21T04:33:41.537Z,12.71
2023-03-21T04:36:09.696Z,12.62
2023-03-21T04:38:38.115Z,12.65
2023-03-21T04:41:05.832Z,12.73
2023-03-21T04:43:33.049Z,12.74
2023-03-21T04:46:00.435Z,12.83
2023-03-21T04:48:28.156Z,12.71
2023-03-21T04:50:56.713Z,12.80
2023-03-21T04:53:24.057Z,12.81
2023-03-21T04:55:54.871Z,12.74
2023-03-21T04:58:22.696Z,12.81
2023-03-21T05:00:53.006Z,12.67
2023-03-21T05:03:21.979Z,12.58
2023-03-21T05:05:49.503Z,12.72
2023-03-21T05:08:19.048Z,12.59
2023-03-21T05:10:46.387Z,12.76
2023-03-21T05:13:13.769Z,12.50
2023-03-21T05:15:41.036Z,12.36
2023-03-21T05:18:11.212Z,12.50
2023-03-21T05:20:54.464Z,12.37
2023-03-21T05:23:23.625Z,12.49
2023-03-21T05:25:51.613Z,12.55
2023-03-21T05:28:31.806Z,12.40
2023-03-21T05:31:00.964Z,12.36
2023-03-21T05:33:28.280Z,12.29
2023-03-21T05:35:55.952Z,12.05
2023-03-21T05:38:25.416Z,12.16
2023-03-21T05:40:54.576Z,12.10
2023-03-21T05:43:21.889Z,12.36
2023-03-21T05:45:49.387Z,12.15
2023-03-21T05:48:18.542Z,11.93
2023-03-21T05:51:01.695Z,11.91
2023-03-21T05:53:29.392Z,11.90
2023-03-21T05:55:57.517Z,11.93
2023-03-21T05:58:41.089Z,12.02
2023-03-21T06:01:09.106Z,11.92
2023-03-21T06:03:38.839Z,11.95
2023-03-21T06:06:26.907Z,12.04
2023-03-21T06:08:56.843Z,11.93
2023-03-21T06:11:37.267Z,11.93
2023-03-21T06:14:20.787Z,11.89
2023-03-21T06:17:06.093Z,11.64
2023-03-21T06:19:35.019Z,11.69
2023-03-21T06:22:07.440Z,11.67
2023-03-21T06:24:37.644Z,11.71
2023-03-21T06:27:05.721Z,11.79
2023-03-21T06:29:46.347Z,11.73
2023-03-21T06:32:13.912Z,11.93
2023-03-21T06:34:41.863Z,11.88
2023-03-21T06:37:12.734Z,11.87
2023-03-21T06:39:40.534Z,11.92
2023-03-21T06:42:08.827Z,12.04
2023-03-21T06:44:36.283Z,11.84
2023-03-21T06:47:07.718Z,11.98
2023-03-21T06:49:35.529Z,12.01
2023-03-21T06:52:08.432Z,12.05
2023-03-21T06:54:36.310Z,11.96
2023-03-21T06:57:10.456Z,12.04
2023-03-21T06:59:41.635Z,12.07
2023-03-21T07:02:18.903Z,12.01
2023-03-21T07:04:59.279Z,11.94
2023-03-21T07:07:29.773Z,12.12
2023-03-21T07:09:57.230Z,12.09
2023-03-21T07:12:26.325Z,12.04
2023-03-21T07:15:12.241Z,11.98
2023-03-21T07:17:41.226Z,12.08
2023-03-21T07:20:09.154Z,12.17
2023-03-21T07:22:36.558Z,12.30
2023-03-21T07:25:05.642Z,12.07
2023-03-21T07:27:40.870Z,12.26
2023-03-21T07:30:10.236Z,12.24
2023-03-21T07:32:40.513Z,12.37
2023-03-21T07:35:11.688Z,12.38
2023-03-21T07:37:40.030Z,12.54
2023-03-21T07:40:12.376Z,12.41
2023-03-21T07:42:41.346Z,12.45
2023-03-21T07:45:11.137Z,12.38
2023-03-21T07:47:38.521Z,12.46
2023-03-21T07:50:06.323Z,12.55
2023-03-21T07:52:33.597Z,12.77
2023-03-21T07:55:00.924Z,12.46
2023-03-21T07:57:28.450Z,12.54
2023-03-21T07:59:55.743Z,12.65
2023-03-21T08:02:23.054Z,12.62
2023-03-21T08:04:50.736Z,12.41
2023-03-21T08:07:18.352Z,12.86
2023-03-21T08:09:45.822Z,12.84
2023-03-21T08:12:13.537Z,12.67
2023-03-21T08:14:40.788Z,12.72
2023-03-21T08:17:09.591Z,12.75
2023-03-21T08:19:37.609Z,13.24
2023-03-21T08:22:06.679Z,13.01
2023-03-21T08:24:34.276Z,13.06
2023-03-21T08:27:02.143Z,13.06
2023-03-21T08:29:29.440Z,13.02
2023-03-21T08:31:58.123Z,13.09
2023-03-21T08:34:26.996Z,13.28
2023-03-21T08:36:54.510Z,13.21
2023-03-21T08:39:21.945Z,13.21
2023-03-21T08:41:49.316Z,13.09
2023-03-21T08:44:17.144Z,13.15
2023-03-21T08:46:44.527Z,13.08
2023-03-21T08:49:12.508Z,13.39
2023-03-21T08:51:41.160Z,13.79
2023-03-21T08:54:08.792Z,13.70
2023-03-21T08:56:37.491Z,13.74
2023-03-21T08:59:04.932Z,14.01
2023-03-21T09:01:32.724Z,13.96
2023-03-21T09:04:00.281Z,13.99
2023-03-21T09:06:28.025Z,13.70
2023-03-21T09:08:55.355Z,13.72
2023-03-21T09:11:22.969Z,13.92
2023-03-21T09:13:50.194Z,14.27
2023-03-21T09:16:17.570Z,14.19
2023-03-21T09:18:45.330Z,14.23
2023-03-21T09:21:15.541Z,14.60
2023-03-21T09:23:44.896Z,14.52
2023-03-21T09:26:13.752Z,14.32
2023-03-21T09:28:41.071Z,14.17
2023-03-21T09:31:11.705Z,14.21
2023-03-21T09:33:42.464Z,14.40
2023-03-21T09:36:18.774Z,14.44
2023-03-21T09:38:47.351Z,14.49
2023-03-21T09:41:47.307Z,14.74
2023-03-21T09:44:56.481Z,14.43
2023-03-21T09:47:33.068Z,14.63
2023-03-21T09:50:13.595Z,14.53
2023-03-21T09:52:53.712Z,14.35
2023-03-21T09:55:26.280Z,14.22
2023-03-21T09:58:04.435Z,14.36
2023-03-21T10:00:40.219Z,14.44
2023-03-21T10:03:18.103Z,14.57
2023-03-21T10:05:49.139Z,14.69
2023-03-21T10:08:24.632Z,14.73
2023-03-21T10:10:54.731Z,14.22
2023-03-21T10:13:41.336Z,14.29
2023-03-21T10:16:16.928Z,14.58
2023-03-21T10:18:45.604Z,14.75
2023-03-21T10:21:47.460Z,14.82
2023-03-21T10:24:11.568Z,15.20
2023-03-21T10:26:38.680Z,15.27
2023-03-21T10:29:07.528Z,15.20
2023-03-21T10:31:35.837Z,15.32
2023-03-21T10:34:10.886Z,15.20
2023-03-21T10:36:38.586Z,15.42
2023-03-21T10:39:17.461Z,15.50
2023-03-21T10:41:44.920Z,15.63
2023-03-21T10:44:15.033Z,15.48
2023-03-21T10:46:53.340Z,15.23
2023-03-21T10:49:21.647Z,15.41
2023-03-21T10:51:57.409Z,15.39
2023-03-21T10:54:35.605Z,15.60
2023-03-21T10:57:08.934Z,15.83
2023-03-21T10:59:49.694Z,15.74
2023-03-21T11:02:24.920Z,15.68
2023-03-21T11:04:56.105Z,15.46
2023-03-21T11:07:27.219Z,15.54
2023-03-21T11:10:00.635Z,15.85
2023-03-21T11:12:40.806Z,15.81
2023-03-21T11:15:27.401Z,15.76
2023-03-21T11:17:55.100Z,15.97
2023-03-21T11:20:22.732Z,16.08
2023-03-21T11:22:54.696Z,16.15
2023-03-21T11:25:27.804Z,16.23
2023-03-21T11:27:56.102Z,16.43
2023-03-21T11:30:26.246Z,16.35
2023-03-21T11:32:57.440Z,16.45
2023-03-21T11:37:56.793Z,16.82
2023-03-21T11:40:27.730Z,17.03
2023-03-21T11:43:05.069Z,16.95
2023-03-21T11:45:35.537Z,17.17
2023-03-21T11:48:15.117Z,17.03
2023-03-21T11:50:47.763Z,16.71
2023-03-21T11:53:28.068Z,16.79
2023-03-21T11:56:04.581Z,17.00
2023-03-21T11:59:08.078Z,16.53
2023-03-21T12:01:44.563Z,16.72
2023-03-21T12:04:37.034Z,16.72
2023-03-21T12:07:28.357Z,16.62
2023-03-21T12:10:24.279Z,16.56
2023-03-21T12:13:03.548Z,15.84
2023-03-21T12:15:41.045Z,15.76
2023-03-21T12:18:11.525Z,15.38
2023-03-21T12:20:45.679Z,15.50
2023-03-21T12:23:36.965Z,15.50
2023-03-21T12:26:37.526Z,15.57
2023-03-21T12:29:22.756Z,15.58
2023-03-21T12:32:06.062Z,15.57
2023-03-21T12:34:58.665Z,15.55
2023-03-21T12:38:05.187Z,15.82
2023-03-21T12:40:55.757Z,16.08
2023-03-21T12:43:32.237Z,15.79
2023-03-21T12:46:11.120Z,15.77
2023-03-21T12:48:52.401Z,15.84
2023-03-21T12:51:23.750Z,15.83
2023-03-21T12:54:00.144Z,15.87
2023-03-21T12:56:44.518Z,15.83
2023-03-21T12:59:32.339Z,15.95
2023-03-21T13:02:02.950Z,16.21
2023-03-21T13:04:40.770Z,16.55
2023-03-21T13:07:11.739Z,16.31
2023-03-21T13:09:40.935Z,16.04
2023-03-21T13:12:32.459Z,16.35
2023-03-21T13:15:24.686Z,16.45
2023-03-21T13:18:04.965Z,16.65
2023-03-21T13:20:44.374Z,16.63
2023-03-21T13:23:13.541Z,17.03
2023-03-21T13:25:48.845Z,16.99
2023-03-21T13:28:20.760Z,16.62
2023-03-21T13:30:49.056Z,16.70
2023-03-21T13:33:24.002Z,16.75
2023-03-21T13:36:06.218Z,16.81
2023-03-21T13:38:35.510Z,17.04
2023-03-21T13:41:07.507Z,16.96
2023-03-21T13:43:55.006Z,16.98
2023-03-21T13:46:25.153Z,17.00
2023-03-21T13:48:58.460Z,16.82
2023-03-21T13:51:29.252Z,16.93
2023-03-21T13:54:03.019Z,16.93
2023-03-21T13:56:53.464Z,17.09
2023-03-21T13:59:32.912Z,17.56
2023-03-21T14:02:01.111Z,17.59
2023-03-21T14:04:41.899Z,17.54
2023-03-21T14:07:18.943Z,17.44
2023-03-21T14:09:48.125Z,17.53
2023-03-21T14:12:21.264Z,17.47
2023-03-21T14:14:55.203Z,17.13
2023-03-21T14:17:26.205Z,17.47
2023-03-21T14:19:55.800Z,17.32
2023-03-21T14:22:23.398Z,17.18
2023-03-21T14:25:00.612Z,17.32
2023-03-21T14:27:33.627Z,17.61
2023-03-21T14:30:02.000Z,17.57
2023-03-21T14:32:30.431Z,17.30
2023-03-21T14:35:00.521Z,17.50
2023-03-21T14:37:37.498Z,17.54
2023-03-21T14:40:27.334Z,17.48
2023-03-21T14:42:55.317Z,17.60
2023-03-21T14:45:26.810Z,17.31
2023-03-21T14:47:59.585Z,17.54
2023-03-21T14:50:36.816Z,17.64
2023-03-21T14:53:04.356Z,17.57
2023-03-21T14:55:32.048Z,17.44
2023-03-21T14:57:59.357Z,17.46
2023-03-21T15:00:30.679Z,17.41
2023-03-21T15:02:59.389Z,17.15
2023-03-21T15:05:30.108Z,17.14
2023-03-21T15:08:15.607Z,17.13
2023-03-21T15:11:05.998Z,16.95
2023-03-21T15:13:52.444Z,16.95
2023-03-21T15:16:19.908Z,16.78
2023-03-21T15:18:47.679Z,16.72
2023-03-21T15:21:19.858Z,16.80
2023-03-21T15:23:48.611Z,17.09
2023-03-21T15:26:18.161Z,17.08
2023-03-21T15:28:47.715Z,17.15
2023-03-21T15:31:19.833Z,17.17
2023-03-21T15:33:48.573Z,17.18
2023-03-21T15:36:26.150Z,17.30
2023-03-21T15:38:54.322Z,17.29
2023-03-21T15:41:21.518Z,17.24
2023-03-21T15:43:53.981Z,17.51
2023-03-21T15:46:33.610Z,17.60
2023-03-21T15:49:08.720Z,17.48
2023-03-21T15:51:36.486Z,17.23
2023-03-21T15:54:03.892Z,16.94
2023-03-21T15:56:34.771Z,17.09
2023-03-21T15:59:04.656Z,16.96
2023-03-21T16:01:38.861Z,17.03
2023-03-21T16:04:10.528Z,16.98
2023-03-21T16:06:39.657Z,17.13
2023-03-21T16:09:14.369Z,16.93
2023-03-21T16:11:43.633Z,17.04
2023-03-21T16:14:10.972Z,17.24
2023-03-21T16:16:38.362Z,17.26
2023-03-21T16:19:07.404Z,17.18
2023-03-21T16:21:38.136Z,17.22
2023-03-21T16:24:06.339Z,17.14
2023-03-21T16:26:37.465Z,17.16
2023-03-21T16:29:07.155Z,17.20
2023-03-21T16:31:37.302Z,17.29
2023-03-21T16:34:05.230Z,17.50
2023-03-21T16:36:40.181Z,16.99
2023-03-21T16:39:18.673Z,16.89
2023-03-21T16:41:46.669Z,16.88
2023-03-21T16:44:14.118Z,17.00
2023-03-21T16:46:41.384Z,17.04
2023-03-21T16:49:20.089Z,16.91
2023-03-21T16:51:48.815Z,16.59
2023-03-21T16:54:17.563Z,16.78
2023-03-21T16:56:49.502Z,16.79
2023-03-21T16:59:16.961Z,16.64
2023-03-21T17:01:46.306Z,16.70
2023-03-21T17:04:14.998Z,16.60
2023-03-21T17:06:51.129Z,16.51
2023-03-21T17:09:23.261Z,16.46
2023-03-21T17:11:51.872Z,16.25
2023-03-21T17:14:21.506Z,16.36
2023-03-21T17:16:49.254Z,16.39
2023-03-21T17:19:24.381Z,16.34
2023-03-21T17:21:51.697Z,16.43
2023-03-21T17:24:19.093Z,16.45
2023-03-21T17:26:46.432Z,16.17
2023-03-21T17:29:15.526Z,16.13
2023-03-21T17:31:47.287Z,15.96
2023-03-21T17:34:15.613Z,15.87
2023-03-21T17:36:44.515Z,16.00
2023-03-21T17:39:23.949Z,16.05
2023-03-21T17:41:52.268Z,16.02
2023-03-21T17:44:20.462Z,16.00
2023-03-21T17:46:51.046Z,15.90
2023-03-21T17:49:19.942Z,15.91
2023-03-21T17:51:47.355Z,15.77
2023-03-21T17:54:14.749Z,15.83
2023-03-21T17:56:42.154Z,15.75
2023-03-21T17:59:13.082Z,15.78
2023-03-21T18:01:41.471Z,15.70
2023-03-21T18:04:08.916Z,15.79
2023-03-21T18:06:37.439Z,15.92
2023-03-21T18:09:10.975Z,15.70
2023-03-21T18:11:39.293Z,15.59
2023-03-21T18:14:16.201Z,15.47
2023-03-21T18:16:44.593Z,15.40
2023-03-21T18:19:15.357Z,15.36
2023-03-21T18:21:45.281Z,15.34
2023-03-21T18:24:13.928Z,15.23
2023-03-21T18:26:41.761Z,15.35
2023-03-21T18:30:13.090Z,15.35
2023-03-21T18:32:06.820Z,15.44
2023-03-21T18:34:38.990Z,15.16
2023-03-21T18:37:08.426Z,15.17
2023-03-21T18:39:37.131Z,15.19
2023-03-21T18:42:06.595Z,15.17
2023-03-21T18:44:38.989Z,15.16
2023-03-21T18:47:07.839Z,15.05
2023-03-21T18:52:23.572Z,15.24
2023-03-21T18:54:50.844Z,15.16
2023-03-21T19:00:13.839Z,15.44
2023-03-21T19:02:46.716Z,15.44
2023-03-21T19:05:16.500Z,15.49
2023-03-21T19:07:43.881Z,15.48
2023-03-21T19:10:18.038Z,15.61
2023-03-21T19:12:45.916Z,15.51
2023-03-21T19:15:13.592Z,15.63
2023-03-21T19:20:28.833Z,15.02
2023-03-21T19:22:56.413Z,14.97
2023-03-21T19:25:23.794Z,15.14
2023-03-21T19:27:52.317Z,14.84
2023-03-21T19:30:19.765Z,15.05
2023-03-21T19:32:47.240Z,15.10
2023-03-21T19:35:14.967Z,14.92
2023-03-21T19:37:43.155Z,14.72
2023-03-21T19:40:11.248Z,14.72
2023-03-21T19:42:38.563Z,14.53
2023-03-21T19:45:06.320Z,14.66
2023-03-21T19:47:33.597Z,14.78
2023-03-21T19:50:47.257Z,14.93
2023-03-21T19:52:48.467Z,14.82
2023-03-21T19:55:16.357Z,14.85
2023-03-21T19:57:43.660Z,14.76
2023-03-21T20:00:11.551Z,14.94
2023-03-21T20:02:39.150Z,14.67
2023-03-21T20:05:08.118Z,14.79
2023-03-21T20:07:35.987Z,14.64
2023-03-21T20:10:04.560Z,14.55
2023-03-21T20:12:33.267Z,14.75
2023-03-21T20:15:16.096Z,14.77
2023-03-21T20:17:44.405Z,14.72
2023-03-21T20:20:15.417Z,14.74
2023-03-21T20:23:05.688Z,14.71
2023-03-21T20:25:33.243Z,14.70
2023-03-21T20:28:15.064Z,14.77
2023-03-21T20:30:53.005Z,14.60
2023-03-21T20:33:20.477Z,14.73
2023-03-21T20:38:37.133Z,14.52
2023-03-21T20:41:06.434Z,14.68
2023-03-21T20:44:24.460Z,14.78
2023-03-21T20:46:21.541Z,14.61
2023-03-21T20:48:49.637Z,14.72
2023-03-21T20:52:24.240Z,14.70
2023-03-21T20:54:05.198Z,14.62
2023-03-21T20:56:32.843Z,14.57
2023-03-21T20:59:14.985Z,14.57
2023-03-21T21:01:45.374Z,14.53
2023-03-21T21:04:19.212Z,14.66
2023-03-21T21:06:47.885Z,14.53
2023-03-21T21:09:16.047Z,14.40
2023-03-21T21:12:06.233Z,14.28
2023-03-21T21:14:30.668Z,14.38
2023-03-21T21:16:58.898Z,14.34
2023-03-21T21:19:27.160Z,14.47
2023-03-21T21:21:54.511Z,14.08
2023-03-21T21:24:21.794Z,14.10
2023-03-21T21:26:49.609Z,14.19
2023-03-21T21:29:17.722Z,14.21
2023-03-21T21:31:51.036Z,14.05
2023-03-21T21:34:20.006Z,14.04
2023-03-21T21:36:47.709Z,14.06
2023-03-21T21:39:15.695Z,14.07
2023-03-21T21:41:43.270Z,14.02
2023-03-21T21:44:11.053Z,13.91
2023-03-21T21:46:38.838Z,13.96
2023-03-21T21:49:06.641Z,13.97
2023-03-21T21:51:35.082Z,14.00
2023-03-21T21:54:03.948Z,14.09
2023-03-21T21:56:35.084Z,13.75
2023-03-21T21:59:03.870Z,13.94
2023-03-21T22:01:34.725Z,13.96
2023-03-21T22:04:08.463Z,13.94
2023-03-21T22:06:35.693Z,13.94
2023-03-21T22:09:06.963Z,13.72
2023-03-21T22:11:34.444Z,13.79
2023-03-21T22:14:02.188Z,13.80
2023-03-21T22:16:29.398Z,13.59
2023-03-21T22:18:56.742Z,13.65
2023-03-21T22:21:24.347Z,13.69
2023-03-21T22:23:51.673Z,13.72
2023-03-21T22:26:19.151Z,13.49
2023-03-21T22:28:46.520Z,13.49
2023-03-21T22:31:18.354Z,13.82
2023-03-21T22:33:46.064Z,13.92
2023-03-21T22:36:13.336Z,13.88
2023-03-21T22:38:42.027Z,13.61
2023-03-21T22:41:09.512Z,13.60
2023-03-21T22:43:36.887Z,13.58
2023-03-21T22:46:05.744Z,13.65
2023-03-21T22:48:33.106Z,13.37
2023-03-21T22:51:00.800Z,13.25
2023-03-21T22:53:28.483Z,13.38
2023-03-21T22:55:55.961Z,13.25
2023-03-21T22:58:23.705Z,13.26
2023-03-21T23:00:51.270Z,13.44
2023-03-21T23:03:19.057Z,13.59
2023-03-21T23:05:46.338Z,13.47
2023-03-21T23:08:13.621Z,13.49
2023-03-21T23:10:43.879Z,13.47
2023-03-21T23:13:11.875Z,13.27
2023-03-21T23:15:39.661Z,13.21
2023-03-21T23:18:07.030Z,13.09
2023-03-21T23:20:34.222Z,13.02
2023-03-21T23:23:01.824Z,13.10
2023-03-21T23:25:30.333Z,12.95
2023-03-21T23:27:57.649Z,13.15
2023-03-21T23:30:25.414Z,13.14
2023-03-21T23:32:52.693Z,13.07
2023-03-21T23:35:19.911Z,13.12
2023-03-21T23:37:53.169Z,13.01
2023-03-21T23:40:21.201Z,12.96
2023-03-21T23:42:48.618Z,13.01
2023-03-21T23:45:16.272Z,13.00
2023-03-21T23:47:43.930Z,13.01
2023-03-21T23:50:11.610Z,13.05
2023-03-21T23:52:41.667Z,12.95
2023-03-21T23:55:09.410Z,12.78
2023-03-21T23:57:38.265Z,13.00
